Time;durP1;ratioP1;P1;durP2;ratioP2;P2;SDS_P1;SDS_P2;PMS_P1;PMS_P2;Temp;Humidity;BMP_temperature;BMP_pressure;BME280_temperature;BME280_humidity;BME280_pressure;Samples;Min_cycle;Max_cycle;Signal;HPM_P1;HPM_P2
2022/03/12 00:00:43;;;;;;;10.40;6.50;;;;;;;;;;4991484;28;20046;-82
2022/03/12 00:03:09;;;;;;;10.40;6.03;;;;;;;;;;5010170;28;20050;-82
2022/03/12 00:05:36;;;;;;;8.05;6.22;;;;;;;;;;5009923;28;20048;-82
2022/03/12 00:08:04;;;;;;;9.73;6.35;;;;;;;;;;5023095;28;20049;-82
2022/03/12 00:10:34;;;;;;;8.98;6.00;;;;;;;;;;5034175;28;20049;-82
2022/03/12 00:13:01;;;;;;;9.80;6.38;;;;;;;;;;5022108;28;20053;-82
2022/03/12 00:15:31;;;;;;;10.60;5.70;;;;;;;;;;5027466;28;20128;-82
2022/03/12 00:18:00;;;;;;;11.23;6.10;;;;;;;;;;5025338;28;20053;-82
2022/03/12 00:20:28;;;;;;;8.60;5.32;;;;;;;;;;5009987;28;20049;-82
2022/03/12 00:22:55;;;;;;;11.02;6.47;;;;;;;;;;5026850;28;20054;-82
2022/03/12 00:25:25;;;;;;;8.50;6.32;;;;;;;;;;5001958;28;20137;-82
2022/03/12 00:27:52;;;;;;;7.53;5.65;;;;;;;;;;5008530;28;20041;-82
2022/03/12 00:30:25;;;;;;;10.30;6.57;;;;;;;;;;5025693;28;20094;-82
2022/03/12 00:32:56;;;;;;;8.25;5.70;;;;;;;;;;5016592;28;20049;-82
2022/03/12 00:35:22;;;;;;;8.73;5.63;;;;;;;;;;5024226;28;20037;-82
2022/03/12 00:37:54;;;;;;;9.15;7.30;;;;;;;;;;5009935;28;20115;-82
2022/03/12 00:40:21;;;;;;;8.15;5.60;;;;;;;;;;5026605;28;20054;-82
2022/03/12 00:42:47;;;;;;;10.32;5.78;;;;;;;;;;5043296;28;20389;-82
2022/03/12 00:45:13;;;;;;;9.93;5.85;;;;;;;;;;5027191;28;20080;-82
2022/03/12 00:47:40;;;;;;;8.85;5.82;;;;;;;;;;5030584;28;20045;-82
2022/03/12 00:50:08;;;;;;;11.07;5.80;;;;;;;;;;5027848;28;20061;-82
2022/03/12 00:52:34;;;;;;;10.55;7.05;;;;;;;;;;5035028;28;20133;-78
2022/03/12 00:55:00;;;;;;;9.80;5.63;;;;;;;;;;4993257;28;20056;-79
2022/03/12 00:57:26;;;;;;;9.50;6.53;;;;;;;;;;5014361;28;20053;-78
2022/03/12 00:59:52;;;;;;;12.50;6.18;;;;;;;;;;4995471;28;20413;-78
2022/03/12 01:02:19;;;;;;;10.45;6.13;;;;;;;;;;5038699;28;20288;-78
2022/03/12 01:04:45;;;;;;;11.38;5.65;;;;;;;;;;5000269;28;20475;-79
2022/03/12 01:07:12;;;;;;;9.40;5.80;;;;;;;;;;5026143;28;20049;-78
2022/03/12 01:09:39;;;;;;;8.40;5.80;;;;;;;;;;5017395;28;20052;-79
2022/03/12 01:12:09;;;;;;;8.85;6.03;;;;;;;;;;5027847;28;20103;-78
2022/03/12 01:14:38;;;;;;;9.82;6.07;;;;;;;;;;5031684;28;20143;-78
2022/03/12 01:17:05;;;;;;;8.02;6.18;;;;;;;;;;5024211;28;20049;-78
2022/03/12 01:19:40;;;;;;;12.65;5.07;;;;;;;;;;5010607;28;20090;-78
2022/03/12 01:22:06;;;;;;;8.77;5.45;;;;;;;;;;5039230;28;20113;-78
2022/03/12 01:24:34;;;;;;;8.55;5.93;;;;;;;;;;5027622;28;20486;-79
2022/03/12 01:27:00;;;;;;;8.82;5.88;;;;;;;;;;5026786;28;20104;-79
2022/03/12 01:29:29;;;;;;;10.93;5.95;;;;;;;;;;5019976;28;20045;-79
2022/03/12 01:31:55;;;;;;;9.27;6.18;;;;;;;;;;5023342;28;20054;-79
2022/03/12 01:34:22;;;;;;;10.65;5.72;;;;;;;;;;5027512;28;20053;-78
2022/03/12 01:36:48;;;;;;;8.75;6.05;;;;;;;;;;5008013;28;20531;-79
2022/03/12 01:39:14;;;;;;;7.95;5.28;;;;;;;;;;5039941;28;20041;-78
2022/03/12 01:42:04;;;;;;;9.57;6.70;;;;;;;;;;5008877;28;20120;-77
2022/03/12 01:44:31;;;;;;;10.75;6.13;;;;;;;;;;5017107;28;20061;-78
2022/03/12 01:46:57;;;;;;;10.05;5.72;;;;;;;;;;5024367;28;20071;-78
2022/03/12 01:49:23;;;;;;;8.90;6.03;;;;;;;;;;5018625;28;20057;-78
2022/03/12 01:51:52;;;;;;;11.30;5.82;;;;;;;;;;5012765;28;20072;-78
2022/03/12 01:54:19;;;;;;;9.63;6.05;;;;;;;;;;5007979;28;20358;-78
2022/03/12 01:56:49;;;;;;;12.82;5.60;;;;;;;;;;4993229;28;20053;-79
2022/03/12 01:59:16;;;;;;;8.70;5.55;;;;;;;;;;5026569;28;20516;-79
2022/03/12 02:01:42;;;;;;;9.43;5.43;;;;;;;;;;5007917;28;20149;-79
2022/03/12 02:04:11;;;;;;;10.93;5.53;;;;;;;;;;5025741;28;20050;-78
2022/03/12 02:06:46;;;;;;;9.48;6.30;;;;;;;;;;5016960;28;20053;-79
2022/03/12 02:09:14;;;;;;;8.90;5.25;;;;;;;;;;5007857;28;20050;-79
2022/03/12 02:11:41;;;;;;;9.80;6.85;;;;;;;;;;5026548;28;20049;-79
2022/03/12 02:14:11;;;;;;;10.70;6.95;;;;;;;;;;4991389;28;20045;-79
2022/03/12 02:16:38;;;;;;;9.38;6.07;;;;;;;;;;4977709;28;20476;-79
2022/03/12 02:19:04;;;;;;;9.40;5.22;;;;;;;;;;5033271;28;20148;-78
2022/03/12 02:21:44;;;;;;;11.15;6.55;;;;;;;;;;5028318;28;20163;-78
2022/03/12 02:24:16;;;;;;;9.13;5.47;;;;;;;;;;5009583;28;20103;-79
2022/03/12 02:26:43;;;;;;;10.00;6.03;;;;;;;;;;4992222;28;20121;-79
2022/03/12 02:29:15;;;;;;;8.45;5.85;;;;;;;;;;4994777;28;20155;-78
2022/03/12 02:31:48;;;;;;;11.10;6.82;;;;;;;;;;5011639;28;20124;-79
2022/03/12 02:34:23;;;;;;;11.95;6.55;;;;;;;;;;4996208;28;20056;-79
2022/03/12 02:36:59;;;;;;;12.13;6.60;;;;;;;;;;5024887;28;20128;-79
2022/03/12 02:39:29;;;;;;;14.27;6.60;;;;;;;;;;5002407;28;20164;-78
2022/03/12 02:41:56;;;;;;;10.57;7.05;;;;;;;;;;4994360;28;20057;-78
2022/03/12 02:44:26;;;;;;;9.82;5.82;;;;;;;;;;5027987;28;20056;-78
2022/03/12 02:47:12;;;;;;;15.48;6.80;;;;;;;;;;5009966;28;20057;-78
2022/03/12 02:49:40;;;;;;;9.07;6.53;;;;;;;;;;4981946;28;20370;-78
2022/03/12 02:52:07;;;;;;;7.75;6.38;;;;;;;;;;5003190;28;20084;-78
2022/03/12 02:54:34;;;;;;;9.90;5.72;;;;;;;;;;4988129;28;20123;-78
2022/03/12 02:57:03;;;;;;;12.55;6.85;;;;;;;;;;4991582;28;20296;-78
2022/03/12 02:59:30;;;;;;;10.90;6.00;;;;;;;;;;4974374;28;20525;-79
2022/03/12 03:01:59;;;;;;;9.57;6.18;;;;;;;;;;4991555;28;20382;-78
2022/03/12 03:04:40;;;;;;;8.30;5.80;;;;;;;;;;4991229;28;20372;-78
2022/03/12 03:07:11;;;;;;;11.40;6.65;;;;;;;;;;4982989;28;20053;-78
2022/03/12 03:09:40;;;;;;;10.52;6.68;;;;;;;;;;4990420;28;20585;-78
2022/03/12 03:12:09;;;;;;;9.55;6.40;;;;;;;;;;4990983;28;20704;-78
2022/03/12 03:14:41;;;;;;;10.23;6.05;;;;;;;;;;4975735;28;20093;-78
2022/03/12 03:17:15;;;;;;;9.77;6.45;;;;;;;;;;4972849;28;20455;-79
2022/03/12 03:19:41;;;;;;;11.43;6.57;;;;;;;;;;4990199;28;20057;-78
2022/03/12 03:22:08;;;;;;;12.20;6.10;;;;;;;;;;4986848;28;20058;-78
2022/03/12 03:24:35;;;;;;;11.18;6.88;;;;;;;;;;5004067;28;20169;-78
2022/03/12 03:27:10;;;;;;;9.27;6.22;;;;;;;;;;4963708;28;20054;-80
2022/03/12 03:29:36;;;;;;;9.00;6.13;;;;;;;;;;5005272;28;20045;-79
2022/03/12 03:32:06;;;;;;;9.85;6.25;;;;;;;;;;4991385;28;20128;-79
2022/03/12 03:34:32;;;;;;;7.78;5.88;;;;;;;;;;5007654;28;20387;-79
2022/03/12 03:36:59;;;;;;;14.32;7.03;;;;;;;;;;4996348;28;20060;-79
2022/03/12 03:39:28;;;;;;;8.85;6.45;;;;;;;;;;4977951;28;20414;-78
2022/03/12 03:41:57;;;;;;;11.35;6.13;;;;;;;;;;4991411;28;20426;-79
2022/03/12 03:44:30;;;;;;;10.15;6.00;;;;;;;;;;4980476;28;20046;-79
2022/03/12 03:47:00;;;;;;;10.60;6.72;;;;;;;;;;4991589;28;20500;-79
2022/03/12 03:49:26;;;;;;;14.75;7.70;;;;;;;;;;5008668;28;20116;-79
2022/03/12 03:51:56;;;;;;;15.98;6.90;;;;;;;;;;5046569;28;20040;-79
2022/03/12 03:54:29;;;;;;;9.55;7.10;;;;;;;;;;5033048;28;20170;-79
2022/03/12 03:56:56;;;;;;;10.38;6.22;;;;;;;;;;5029416;28;20080;-79
2022/03/12 03:59:22;;;;;;;9.60;6.50;;;;;;;;;;5029890;28;20106;-79
2022/03/12 04:01:50;;;;;;;9.52;6.60;;;;;;;;;;5033891;28;20056;-79
2022/03/12 04:04:18;;;;;;;8.68;5.80;;;;;;;;;;4992705;28;20354;-79
2022/03/12 04:06:44;;;;;;;11.25;6.55;;;;;;;;;;5031977;28;20362;-79
2022/03/12 04:09:10;;;;;;;13.73;7.35;;;;;;;;;;5014235;28;20052;-79
2022/03/12 04:11:38;;;;;;;9.13;6.30;;;;;;;;;;5041550;28;20385;-79
2022/03/12 04:14:08;;;;;;;11.25;7.25;;;;;;;;;;5015500;28;20114;-79
2022/03/12 04:16:37;;;;;;;13.93;7.45;;;;;;;;;;5015634;28;20076;-79
2022/03/12 04:19:07;;;;;;;12.93;6.95;;;;;;;;;;5023954;28;20048;-79
2022/03/12 04:21:33;;;;;;;14.55;7.45;;;;;;;;;;5012393;28;20525;-80
2022/03/12 04:23:59;;;;;;;9.55;5.90;;;;;;;;;;5012657;28;20562;-79
2022/03/12 04:26:26;;;;;;;11.55;7.15;;;;;;;;;;5031551;28;20056;-79
2022/03/12 04:28:58;;;;;;;11.55;7.10;;;;;;;;;;5030791;28;20370;-79
2022/03/12 04:31:24;;;;;;;12.33;7.90;;;;;;;;;;5028569;28;20056;-79
2022/03/12 04:33:51;;;;;;;9.30;6.47;;;;;;;;;;5028261;28;20397;-79
2022/03/12 04:36:17;;;;;;;9.57;7.53;;;;;;;;;;5031501;28;20052;-79
2022/03/12 04:38:43;;;;;;;10.43;6.90;;;;;;;;;;5008763;28;20045;-79
2022/03/12 04:41:12;;;;;;;12.38;7.68;;;;;;;;;;5015725;28;20041;-79
2022/03/12 04:43:38;;;;;;;12.18;7.47;;;;;;;;;;5014044;28;20145;-79
2022/03/12 04:46:08;;;;;;;13.70;7.78;;;;;;;;;;5027929;28;20057;-79
2022/03/12 04:48:34;;;;;;;12.73;7.32;;;;;;;;;;5008998;28;20533;-79
2022/03/12 04:51:00;;;;;;;13.07;8.23;;;;;;;;;;5016527;28;20094;-80
2022/03/12 04:53:27;;;;;;;15.85;8.65;;;;;;;;;;4991512;28;20136;-80
2022/03/12 04:55:53;;;;;;;10.48;7.82;;;;;;;;;;5013500;28;20175;-80
2022/03/12 04:58:19;;;;;;;14.15;8.55;;;;;;;;;;5009234;28;20068;-80
2022/03/12 05:00:46;;;;;;;10.57;7.45;;;;;;;;;;5013101;28;20076;-80
2022/03/12 05:03:14;;;;;;;18.25;9.60;;;;;;;;;;5019195;28;20045;-80
2022/03/12 05:05:41;;;;;;;12.65;8.90;;;;;;;;;;5039355;28;20065;-80
2022/03/12 05:08:19;;;;;;;9.68;7.50;;;;;;;;;;5038782;28;20378;-79
2022/03/12 05:10:51;;;;;;;13.02;9.02;;;;;;;;;;5009731;28;20402;-80
2022/03/12 05:13:22;;;;;;;11.35;7.72;;;;;;;;;;5027474;28;20049;-80
2022/03/12 05:15:56;;;;;;;11.57;7.35;;;;;;;;;;5031644;28;20046;-80
2022/03/12 05:18:23;;;;;;;12.18;6.72;;;;;;;;;;5030170;28;20076;-79
2022/03/12 05:20:50;;;;;;;9.98;7.22;;;;;;;;;;5028658;28;20060;-79
2022/03/12 05:23:17;;;;;;;12.05;8.23;;;;;;;;;;5027841;28;20092;-79
2022/03/12 05:25:47;;;;;;;14.70;9.98;;;;;;;;;;5023258;28;20046;-79
2022/03/12 05:28:26;;;;;;;11.25;7.85;;;;;;;;;;5027105;28;20042;-80
2022/03/12 05:30:56;;;;;;;11.82;8.40;;;;;;;;;;5025962;28;20085;-79
2022/03/12 05:33:26;;;;;;;11.05;7.50;;;;;;;;;;5022788;28;20052;-79
2022/03/12 05:35:54;;;;;;;9.00;6.50;;;;;;;;;;5027799;28;20046;-79
2022/03/12 05:38:31;;;;;;;20.88;8.75;;;;;;;;;;5007401;28;20049;-80
2022/03/12 05:41:10;;;;;;;13.88;8.48;;;;;;;;;;5003629;28;20386;-79
2022/03/12 05:43:42;;;;;;;13.85;8.23;;;;;;;;;;5027274;28;20413;-80
2022/03/12 05:46:11;;;;;;;9.93;7.38;;;;;;;;;;5028430;28;20128;-79
2022/03/12 05:48:37;;;;;;;16.65;8.73;;;;;;;;;;5021442;28;20129;-83
2022/03/12 05:51:04;;;;;;;12.27;7.78;;;;;;;;;;5028840;28;20041;-83
2022/03/12 05:53:34;;;;;;;13.77;8.98;;;;;;;;;;5001239;28;20100;-83
2022/03/12 05:56:00;;;;;;;13.35;8.35;;;;;;;;;;5040272;28;20045;-83
2022/03/12 05:58:27;;;;;;;11.35;8.73;;;;;;;;;;5030211;28;20132;-83
2022/03/12 06:00:54;;;;;;;13.70;8.65;;;;;;;;;;5006344;28;20513;-82
2022/03/12 06:03:21;;;;;;;12.35;8.43;;;;;;;;;;4988401;28;20045;-83
2022/03/12 06:05:56;;;;;;;11.90;7.20;;;;;;;;;;4997238;28;20137;-82
2022/03/12 06:08:23;;;;;;;12.77;8.00;;;;;;;;;;5034315;28;20041;-82
2022/03/12 06:10:54;;;;;;;12.93;7.60;;;;;;;;;;5020676;28;20052;-83
2022/03/12 06:13:23;;;;;;;11.05;7.40;;;;;;;;;;5040106;28;20049;-82
2022/03/12 06:15:52;;;;;;;11.05;7.93;;;;;;;;;;4996281;28;20453;-82
2022/03/12 06:18:19;;;;;;;10.68;7.38;;;;;;;;;;4986487;28;20501;-82
2022/03/12 06:20:45;;;;;;;12.63;7.97;;;;;;;;;;5023268;28;20055;-84
2022/03/12 06:23:11;;;;;;;12.02;7.70;;;;;;;;;;5032832;28;20137;-83
2022/03/12 06:25:39;;;;;;;11.95;7.82;;;;;;;;;;4985745;28;20049;-83
2022/03/12 06:28:05;;;;;;;12.20;7.28;;;;;;;;;;5024379;28;20052;-83
2022/03/12 06:30:33;;;;;;;11.93;8.32;;;;;;;;;;5036874;28;20116;-83
2022/03/12 06:32:59;;;;;;;12.98;8.82;;;;;;;;;;5031338;28;20057;-83
2022/03/12 06:35:28;;;;;;;14.30;8.40;;;;;;;;;;5004112;28;20219;-83
2022/03/12 06:37:56;;;;;;;12.50;7.30;;;;;;;;;;5026077;28;20658;-82
2022/03/12 06:40:25;;;;;;;11.57;7.53;;;;;;;;;;5021405;28;20640;-83
2022/03/12 06:42:53;;;;;;;15.15;8.65;;;;;;;;;;5014448;28;20061;-82
2022/03/12 06:45:19;;;;;;;14.45;7.63;;;;;;;;;;5018515;28;20133;-82
2022/03/12 06:47:46;;;;;;;16.67;8.40;;;;;;;;;;5022767;28;20085;-83
2022/03/12 06:50:16;;;;;;;10.38;7.80;;;;;;;;;;5022144;28;20128;-82
2022/03/12 06:52:47;;;;;;;12.43;8.13;;;;;;;;;;5029124;28;20088;-82
2022/03/12 06:55:14;;;;;;;13.30;8.32;;;;;;;;;;5002171;28;20496;-81
2022/03/12 06:57:40;;;;;;;13.55;8.90;;;;;;;;;;4985235;28;20046;-78
2022/03/12 07:00:11;;;;;;;10.82;8.13;;;;;;;;;;5012596;28;20057;-78
2022/03/12 07:02:37;;;;;;;13.23;7.28;;;;;;;;;;5031382;28;20053;-78
2022/03/12 07:05:05;;;;;;;13.13;9.63;;;;;;;;;;5022078;28;20144;-78
2022/03/12 07:07:31;;;;;;;11.85;7.75;;;;;;;;;;5022384;28;20064;-78
2022/03/12 07:10:05;;;;;;;12.63;8.10;;;;;;;;;;5028249;28;20104;-77
2022/03/12 07:12:31;;;;;;;12.13;8.13;;;;;;;;;;5029376;28;20036;-77
2022/03/12 07:14:57;;;;;;;12.85;7.88;;;;;;;;;;5014773;28;20053;-78
2022/03/12 07:17:23;;;;;;;13.00;7.72;;;;;;;;;;5037301;28;20469;-77
2022/03/12 07:19:50;;;;;;;10.55;7.65;;;;;;;;;;5026594;28;20080;-77
2022/03/12 07:22:16;;;;;;;12.82;7.72;;;;;;;;;;5020715;28;20335;-78
2022/03/12 07:24:45;;;;;;;16.90;9.60;;;;;;;;;;5004655;28;20571;-78
2022/03/12 07:27:12;;;;;;;17.27;9.13;;;;;;;;;;5032118;28;20053;-79
2022/03/12 07:29:38;;;;;;;12.43;8.13;;;;;;;;;;5026928;28;20919;-81
2022/03/12 07:32:04;;;;;;;16.30;8.40;;;;;;;;;;5000146;28;20445;-80
2022/03/12 07:34:31;;;;;;;10.70;7.50;;;;;;;;;;5004877;28;20531;-80
2022/03/12 07:36:57;;;;;;;11.93;7.90;;;;;;;;;;5006993;28;20049;-81
2022/03/12 07:39:26;;;;;;;12.18;7.43;;;;;;;;;;5012416;28;20040;-82
2022/03/12 07:41:52;;;;;;;17.00;8.98;;;;;;;;;;5028686;28;20055;-82
2022/03/12 07:44:24;;;;;;;16.80;8.68;;;;;;;;;;5034441;28;20067;-81
2022/03/12 07:46:53;;;;;;;19.48;8.27;;;;;;;;;;5004311;28;20074;-81
2022/03/12 07:49:20;;;;;;;12.85;8.10;;;;;;;;;;5024795;28;20058;-81
2022/03/12 07:51:47;;;;;;;12.00;8.48;;;;;;;;;;5015893;28;20060;-81
2022/03/12 07:54:15;;;;;;;11.85;7.97;;;;;;;;;;5027829;28;20088;-82
2022/03/12 07:56:43;;;;;;;14.57;9.07;;;;;;;;;;5035830;28;20053;-81
2022/03/12 07:59:10;;;;;;;11.45;7.47;;;;;;;;;;5010385;28;20373;-81
2022/03/12 08:01:43;;;;;;;12.50;8.27;;;;;;;;;;5026514;28;20119;-81
2022/03/12 08:04:09;;;;;;;13.07;8.20;;;;;;;;;;5022494;28;20046;-82
2022/03/12 08:06:38;;;;;;;14.45;8.10;;;;;;;;;;5010465;28;20084;-81
2022/03/12 08:09:04;;;;;;;10.65;7.25;;;;;;;;;;5024664;28;20045;-81
2022/03/12 08:11:32;;;;;;;10.90;7.50;;;;;;;;;;5012935;28;20579;-82
2022/03/12 08:14:20;;;;;;;13.82;9.13;;;;;;;;;;5028903;28;20056;-82
2022/03/12 08:16:48;;;;;;;12.10;8.07;;;;;;;;;;5024574;28;20465;-83
2022/03/12 08:19:17;;;;;;;11.52;7.38;;;;;;;;;;5026128;28;20052;-82
2022/03/12 08:21:44;;;;;;;11.55;8.00;;;;;;;;;;5019245;28;20204;-83
2022/03/12 08:24:12;;;;;;;11.95;8.25;;;;;;;;;;5025969;28;20046;-82
2022/03/12 08:26:41;;;;;;;12.30;8.48;;;;;;;;;;5019582;28;20262;-82
2022/03/12 08:29:12;;;;;;;12.02;7.95;;;;;;;;;;5018799;28;20054;-82
2022/03/12 08:31:39;;;;;;;12.70;8.20;;;;;;;;;;4992116;28;20053;-82
2022/03/12 08:34:06;;;;;;;12.60;7.70;;;;;;;;;;4997222;28;20100;-81
2022/03/12 08:36:32;;;;;;;14.50;8.63;;;;;;;;;;5028452;28;20486;-83
2022/03/12 08:38:58;;;;;;;11.65;8.20;;;;;;;;;;5025571;28;20849;-82
2022/03/12 08:41:25;;;;;;;13.13;8.63;;;;;;;;;;5016718;28;20049;-81
2022/03/12 08:43:51;;;;;;;13.30;8.43;;;;;;;;;;5045300;28;20188;-80
2022/03/12 08:46:18;;;;;;;14.07;8.30;;;;;;;;;;5024275;28;20042;-80
2022/03/12 08:48:44;;;;;;;12.65;7.72;;;;;;;;;;5026551;28;20425;-81
2022/03/12 08:51:14;;;;;;;13.52;8.93;;;;;;;;;;5006306;28;20439;-81
2022/03/12 08:53:40;;;;;;;14.32;8.90;;;;;;;;;;5021700;28;20417;-81
2022/03/12 08:56:09;;;;;;;12.00;8.10;;;;;;;;;;5022288;28;20136;-82
2022/03/12 08:58:41;;;;;;;11.50;9.10;;;;;;;;;;5006929;28;20045;-82
2022/03/12 09:01:08;;;;;;;14.65;8.60;;;;;;;;;;5025634;28;20045;-82
2022/03/12 09:03:36;;;;;;;15.65;9.50;;;11.00;58.40;;;;;;5004951;28;20132;-82
2022/03/12 09:06:07;;;;;;;14.68;8.73;;;9.10;74.50;;;;;;5010973;28;20086;-82
2022/03/12 09:08:33;;;;;;;16.67;9.30;;;9.20;74.70;;;;;;5009747;28;20144;-82
2022/03/12 09:11:05;;;;;;;16.45;9.90;;;9.20;75.00;;;;;;4995380;28;20080;-82
2022/03/12 09:13:31;;;;;;;12.23;8.98;;;9.30;75.60;;;;;;5009491;28;20057;-82
2022/03/12 09:15:58;;;;;;;12.77;8.07;;;;;;;;;;5002566;28;20088;-82
2022/03/12 09:18:30;;;;;;;12.25;8.40;;;;;;;;;;5010333;28;20406;-82
2022/03/12 09:20:56;;;;;;;11.73;8.82;;;;;;;;;;4993799;28;20053;-82
2022/03/12 09:23:22;;;;;;;11.00;8.32;;;;;;;;;;4991510;28;20045;-82
2022/03/12 09:25:52;;;;;;;14.13;8.00;;;;;;;;;;5009103;28;20050;-82
2022/03/12 09:28:22;;;;;;;10.98;8.45;;;;;;;;;;5027005;28;20472;-82
2022/03/12 09:30:52;;;;;;;11.70;8.80;;;;;;;;;;5045159;28;20037;-82
2022/03/12 09:33:22;;;;;;;11.50;8.20;;;;;;;;;;5014986;28;20064;-82
2022/03/12 09:35:54;;;;;;;11.48;7.65;;;;;;;;;;5026726;28;20046;-82
2022/03/12 09:38:23;;;;;;;16.65;10.23;;;;;;;;;;5014018;28;20076;-82
2022/03/12 09:40:52;;;;;;;12.93;7.63;;;;;;;;;;5032220;28;20121;-82
2022/03/12 09:43:18;;;;;;;12.93;8.40;;;;;;;;;;5033082;28;20189;-82
2022/03/12 09:45:47;;;;;;;12.18;8.20;;;;;;;;;;5022217;28;20175;-80
2022/03/12 09:48:15;;;;;;;11.95;7.82;;;;;;;;;;5029559;28;20528;-80
2022/03/12 09:50:41;;;;;;;14.95;9.07;;;;;;;;;;5028717;28;20049;-81
2022/03/12 09:53:07;;;;;;;13.43;9.18;;;;;;;;;;5016366;28;20060;-80
2022/03/12 09:55:34;;;;;;;12.88;7.30;;;;;;;;;;5014679;28;20132;-80
2022/03/12 09:58:00;;;;;;;11.20;7.95;;;;;;;;;;5016498;28;20466;-81
2022/03/12 10:00:26;;;;;;;11.27;8.23;;;;;;;;;;5030144;28;20111;-80
2022/03/12 10:02:56;;;;;;;12.43;7.75;;;;;;;;;;5007239;28;20050;-80
2022/03/12 10:05:35;;;;;;;13.50;8.20;;;;;;;;;;5007655;28;20420;-80
2022/03/12 10:08:01;;;;;;;13.98;7.53;;;;;;;;;;5008799;28;20045;-80
2022/03/12 10:10:31;;;;;;;11.85;7.85;;;;;;;;;;5031345;28;20473;-80
2022/03/12 10:12:57;;;;;;;14.10;8.07;;;;;;;;;;5027034;28;20049;-81
2022/03/12 10:15:26;;;;;;;12.05;8.75;;;;;;;;;;5043802;28;20053;-81
2022/03/12 10:17:56;;;;;;;14.98;8.38;;;;;;;;;;5029126;28;20140;-80
2022/03/12 10:20:22;;;;;;;12.55;8.23;;;;;;;;;;5012041;28;20047;-80
2022/03/12 10:22:48;;;;;;;11.23;8.75;;;;;;;;;;5032736;28;20133;-80
2022/03/12 10:25:15;;;;;;;12.90;8.18;;;;;;;;;;5028122;28;20053;-80
2022/03/12 10:27:42;;;;;;;11.07;8.43;;;;;;;;;;5049976;28;20040;-80
2022/03/12 10:30:12;;;;;;;11.48;7.47;;;;;;;;;;5012255;28;20052;-84
2022/03/12 10:32:46;;;;;;;10.80;7.90;;;;;;;;;;5027911;28;20061;-84
2022/03/12 10:35:18;;;;;;;14.13;8.60;;;;;;;;;;5011087;28;20067;-85
2022/03/12 10:37:46;;;;;;;11.50;8.80;;;;;;;;;;5009314;28;20076;-85
2022/03/12 10:40:21;;;;;;;12.57;7.82;;;;;;;;;;5007772;28;20049;-85
2022/03/12 10:42:51;;;;;;;12.00;7.95;;;;;;;;;;4989560;28;20418;-85
2022/03/12 10:45:22;;;;;;;12.30;8.65;;;;;;;;;;5022126;28;20052;-85
2022/03/12 10:47:50;;;;;;;14.02;7.85;;;;;;;;;;5026392;28;20041;-85
2022/03/12 10:50:18;;;;;;;11.40;7.50;;;;;;;;;;5017998;28;20093;-85
2022/03/12 10:52:53;;;;;;;11.50;8.05;;;;;;;;;;5047512;28;20072;-85
2022/03/12 10:55:33;;;;;;;14.98;7.38;;;;;;;;;;5023933;28;20500;-85
2022/03/12 10:58:05;;;;;;;12.82;8.02;;;;;;;;;;5020353;28;20057;-83
2022/03/12 11:00:37;;;;;;;12.90;7.77;;;;;;;;;;5006256;28;20053;-83
2022/03/12 11:03:04;;;;;;;11.13;7.45;;;;;;;;;;5026601;28;20294;-82
2022/03/12 11:05:36;;;;;;;10.48;6.95;;;;;;;;;;5027920;28;20194;-82
2022/03/12 11:08:17;;;;;;;14.15;7.47;;;;;;;;;;5027086;28;20041;-83
2022/03/12 11:11:06;;;;;;;10.50;7.13;;;;;;;;;;5016392;28;20096;-82
2022/03/12 11:13:50;;;;;;;9.45;5.82;;;;;;;;;;5012125;28;20050;-83
2022/03/12 11:16:19;;;;;;;11.10;6.53;;;;;;;;;;5028098;28;20493;-83
2022/03/12 11:18:51;;;;;;;11.00;7.55;;;;;;;;;;5002667;28;20057;-81
2022/03/12 11:21:28;;;;;;;11.32;7.07;;;;;;;;;;4982686;28;20136;-82
2022/03/12 11:23:54;;;;;;;9.82;5.95;;;;;;;;;;4998450;28;20120;-82
2022/03/12 11:26:20;;;;;;;8.52;5.07;;;;;;;;;;5023934;28;20045;-82
2022/03/12 11:28:57;;;;;;;8.25;5.00;;;;;;;;;;5030645;28;20384;-82
2022/03/12 11:31:39;;;;;;;10.68;4.75;;;;;;;;;;5029380;28;20055;-82
2022/03/12 11:34:32;;;;;;;8.70;5.55;;;;;;;;;;5028386;28;20045;-84
2022/03/12 11:37:05;;;;;;;8.98;5.05;;;;;;;;;;5035157;28;20056;-83
2022/03/12 11:39:33;;;;;;;9.07;5.05;;;;;;;;;;5024833;28;20045;-84
2022/03/12 11:42:15;;;;;;;9.18;5.82;;;;;;;;;;5026859;28;20135;-84
2022/03/12 11:44:46;;;;;;;9.75;4.95;;;;;;;;;;5028902;28;20124;-84
2022/03/12 11:47:14;;;;;;;9.20;5.82;;;;;;;;;;5023177;28;20234;-85
2022/03/12 11:49:41;;;;;;;7.57;5.13;;;;;;;;;;5033421;28;20102;-85
2022/03/12 11:52:10;;;;;;;7.68;4.68;;;;;;;;;;5032047;28;20048;-84
2022/03/12 11:54:43;;;;;;;7.75;4.32;;;;;;;;;;5021699;28;20064;-84
2022/03/12 11:57:20;;;;;;;11.90;4.82;;;;;;;;;;5013071;28;20060;-83
2022/03/12 11:59:46;;;;;;;8.43;4.80;;;;;;;;;;5031609;28;20128;-82
2022/03/12 12:02:19;;;;;;;7.53;4.68;;;;;;;;;;5016941;28;20117;-81
2022/03/12 12:04:49;;;;;;;7.63;4.43;;;;;;;;;;5021471;28;20390;-80
2022/03/12 12:07:15;;;;;;;6.88;4.28;;;;;;;;;;5028329;28;20733;-80
2022/03/12 12:09:41;;;;;;;9.85;4.20;;;;;;;;;;4997023;28;20481;-80
2022/03/12 12:12:13;;;;;;;7.25;4.78;;;;;;;;;;5012382;28;20073;-79
2022/03/12 12:14:40;;;;;;;6.22;4.35;;;;;;;;;;5012603;28;20204;-82
2022/03/12 12:17:06;;;;;;;5.35;3.53;;;;;;;;;;5036475;28;20068;-80
2022/03/12 12:19:34;;;;;;;8.25;3.67;;;;;;;;;;5015179;28;20053;-79
2022/03/12 12:22:02;;;;;;;6.53;4.38;;;;;;;;;;5020133;28;20053;-79
2022/03/12 12:24:30;;;;;;;5.88;3.45;;;;;;;;;;5015330;28;20041;-79
2022/03/12 12:27:03;;;;;;;6.47;3.67;;;;;;;;;;5001379;28;20104;-80
2022/03/12 12:29:48;;;;;;;6.55;3.92;;;;;;;;;;5018570;28;20058;-80
2022/03/12 12:32:19;;;;;;;6.20;3.75;;;;;;;;;;5026642;28;20398;-83
2022/03/12 12:35:04;;;;;;;7.57;4.80;;;;;;;;;;5023409;28;20056;-83
2022/03/12 12:37:42;;;;;;;8.95;4.80;;;;;;;;;;5021866;28;20060;-83
2022/03/12 12:40:10;;;;;;;7.07;4.60;;;;;;;;;;5010375;28;20370;-83
2022/03/12 12:42:40;;;;;;;6.70;4.13;;;;;;;;;;5024213;28;20545;-78
2022/03/12 12:45:08;;;;;;;5.85;4.20;;;;;;;;;;5029571;28;20045;-79
2022/03/12 12:47:35;;;;;;;7.32;4.32;;;;;;;;;;5007701;28;20145;-79
2022/03/12 12:50:01;;;;;;;7.07;4.35;;;;;;;;;;5018781;28;20058;-79
2022/03/12 12:52:35;;;;;;;10.63;4.60;;;;;;;;;;5011233;28;20053;-79
2022/03/12 12:55:02;;;;;;;6.45;3.33;;;;;;;;;;5040224;28;20052;-79
2022/03/12 12:57:48;;;;;;;7.32;4.45;;;;;;;;;;5018679;28;20140;-78
2022/03/12 13:00:22;;;;;;;5.63;4.18;;;;;;;;;;5015176;28;20121;-79
2022/03/12 13:02:49;;;;;;;7.93;5.18;;;;;;;;;;5017287;28;20052;-78
2022/03/12 13:05:15;;;;;;;11.55;5.68;;;;;;;;;;5020916;28;20051;-79
2022/03/12 13:08:00;;;;;;;8.65;6.40;;;;;;;;;;5024007;28;20049;-78
2022/03/12 13:10:29;;;;;;;8.32;6.20;;;;;;;;;;5007327;28;20053;-78
2022/03/12 13:13:25;;;;;;;12.20;7.00;;;;;;;;;;5024769;28;20048;-79
2022/03/12 13:15:52;;;;;;;9.75;6.68;;;;;;;;;;5038487;28;20049;-79
2022/03/12 13:18:21;;;;;;;13.25;7.35;;;;;;;;;;5025173;28;20377;-79
2022/03/12 13:20:47;;;;;;;10.82;6.63;;;;;;;;;;5016461;28;20248;-78
2022/03/12 13:23:19;;;;;;;13.50;7.45;;;;;;;;;;5007094;28;20045;-79
2022/03/12 13:25:47;;;;;;;9.35;7.07;;;;;;;;;;5024319;28;20041;-79
2022/03/12 13:31:46;;;;;;;12.40;7.60;;;;;;;;;;4995499;28;20068;-80
2022/03/12 13:34:22;;;;;;;9.70;6.15;;;;;;;;;;4997031;28;20417;-79
2022/03/12 13:36:59;;;;;;;8.82;6.95;;;;;;;;;;5016888;28;20429;-80
2022/03/12 13:39:28;;;;;;;8.13;5.85;;;;;;;;;;5023895;28;20053;-80
2022/03/12 13:41:55;;;;;;;11.68;6.93;;;;;;;;;;5010019;28;20115;-80
2022/03/12 13:44:24;;;;;;;11.27;5.80;;;;;;;;;;5025879;28;20076;-80
2022/03/12 13:46:51;;;;;;;9.73;6.95;;;;;;;;;;5019609;28;20416;-80
2022/03/12 13:49:18;;;;;;;11.40;7.20;;;;;;;;;;5022380;28;20402;-80
2022/03/12 13:51:55;;;;;;;9.70;6.43;;;;;;;;;;5016003;28;20053;-80
2022/03/12 13:54:25;;;;;;;10.70;6.10;;;;;;;;;;5023611;28;20045;-80
2022/03/12 13:56:58;;;;;;;9.45;6.50;;;;;;;;;;5006137;28;20061;-80
2022/03/12 13:59:30;;;;;;;11.88;6.65;;;;;;;;;;5024825;28;20462;-81
2022/03/12 14:01:58;;;;;;;8.18;6.45;;;;;;;;;;4994288;28;20103;-80
2022/03/12 14:04:28;;;;;;;7.97;5.68;;;;;;;;;;4996219;28;20046;-79
2022/03/12 14:06:54;;;;;;;9.50;6.35;;;;;;;;;;5035547;28;20136;-84
2022/03/12 14:09:23;;;;;;;11.63;6.97;;;;;;;;;;4997367;28;20160;-79
2022/03/12 14:11:49;;;;;;;9.98;5.75;;;;;;;;;;5024794;28;20081;-80
2022/03/12 14:14:19;;;;;;;9.63;6.32;;;;;;;;;;5013993;28;20410;-80
2022/03/12 14:16:53;;;;;;;7.75;5.80;;;;;;;;;;5024188;28;20140;-80
2022/03/12 14:19:24;;;;;;;8.00;6.07;;;;;;;;;;5010389;28;20128;-80
2022/03/12 14:21:58;;;;;;;8.32;6.18;;;;;;;;;;5000753;28;20072;-80
2022/03/12 14:24:28;;;;;;;8.10;5.55;;;;;;;;;;5022441;28;20057;-83
2022/03/12 14:27:13;;;;;;;8.50;5.47;;;;;;;;;;4998074;28;20100;-82
2022/03/12 14:29:43;;;;;;;7.22;5.60;;;;;;;;;;4997211;28;20050;-82
2022/03/12 14:32:10;;;;;;;9.27;6.32;;;;;;;;;;5009459;28;20462;-83
2022/03/12 14:34:38;;;;;;;10.52;5.82;;;;;;;;;;5037859;28;20113;-83
2022/03/12 14:37:05;;;;;;;8.57;5.90;;;;;;;;;;5010459;28;20051;-82
2022/03/12 14:39:32;;;;;;;7.82;5.32;;;;;;;;;;5008700;28;20080;-82
2022/03/12 14:42:04;;;;;;;7.55;5.47;;;;;;;;;;5009210;28;20060;-82
2022/03/12 14:44:31;;;;;;;8.63;6.47;;;;;;;;;;5026372;28;20065;-82
2022/03/12 14:46:58;;;;;;;9.95;6.88;;;;;;;;;;5002862;28;20343;-82
2022/03/12 14:49:24;;;;;;;10.43;6.20;;;;;;;;;;5028627;28;20063;-82